createdAt,value
2022-09-07T00:01:57.343Z,67.23
2022-09-07T00:04:46.095Z,67.21
2022-09-07T00:07:28.352Z,67.82
2022-09-07T00:10:17.002Z,67.53
2022-09-07T00:13:07.025Z,67.95
2022-09-07T00:15:49.376Z,67.70
2022-09-07T00:18:40.284Z,67.98
2022-09-07T00:21:31.076Z,67.56
2022-09-07T00:24:13.780Z,67.96
2022-09-07T00:27:06.427Z,68.38
2022-09-07T00:29:49.211Z,68.20
2022-09-07T00:32:38.687Z,68.36
2022-09-07T00:35:22.179Z,68.23
2022-09-07T00:38:10.228Z,68.54
2022-09-07T00:40:52.743Z,68.11
2022-09-07T00:43:46.450Z,68.13
2022-09-07T00:46:42.819Z,68.52
2022-09-07T00:49:36.752Z,68.15
2022-09-07T00:52:22.117Z,68.35
2022-09-07T00:55:16.743Z,68.97
2022-09-07T00:58:06.753Z,68.93
2022-09-07T01:00:52.006Z,69.00
2022-09-07T01:03:46.715Z,68.79
2022-09-07T01:06:37.036Z,69.23
2022-09-07T01:09:32.709Z,69.41
2022-09-07T01:12:15.202Z,69.56
2022-09-07T01:15:04.014Z,69.10
2022-09-07T01:18:11.071Z,68.74
2022-09-07T01:21:20.696Z,68.94
2022-09-07T01:24:26.078Z,68.45
2022-09-07T01:27:29.572Z,68.10
2022-09-07T01:30:20.766Z,68.25
2022-09-07T01:33:28.382Z,68.47
2022-09-07T01:36:30.781Z,68.19
2022-09-07T01:39:13.457Z,68.30
2022-09-07T01:42:33.365Z,68.20
2022-09-07T01:45:18.450Z,67.85
2022-09-07T01:48:13.768Z,67.58
2022-09-07T01:51:10.203Z,67.23
2022-09-07T01:53:59.791Z,67.77
2022-09-07T01:56:47.070Z,67.60
2022-09-07T01:59:44.778Z,67.41
2022-09-07T02:02:35.840Z,67.09
2022-09-07T02:05:40.158Z,67.21
2022-09-07T02:09:00.786Z,66.44
2022-09-07T02:11:55.960Z,66.11
2022-09-07T02:14:52.852Z,65.72
2022-09-07T02:17:39.506Z,65.57
2022-09-07T02:20:35.120Z,65.07
2022-09-07T02:23:22.543Z,64.57
2022-09-07T02:26:17.798Z,64.90
2022-09-07T02:29:07.511Z,65.02
2022-09-07T02:31:51.747Z,64.76
2022-09-07T02:34:41.193Z,64.30
2022-09-07T02:37:24.437Z,63.30
2022-09-07T02:40:12.883Z,64.07
2022-09-07T02:42:55.346Z,63.87
2022-09-07T02:46:21.719Z,63.81
2022-09-07T02:49:27.178Z,63.47
2022-09-07T02:52:30.201Z,62.98
2022-09-07T02:55:37.214Z,61.90
2022-09-07T02:58:37.122Z,61.78
2022-09-07T03:01:56.292Z,61.43
2022-09-07T03:05:02.084Z,60.78
2022-09-07T03:08:08.757Z,61.36
2022-09-07T03:10:58.766Z,61.41
2022-09-07T03:13:47.749Z,61.56
2022-09-07T03:16:30.038Z,61.69
2022-09-07T03:19:19.194Z,60.96
2022-09-07T03:22:08.772Z,61.11
2022-09-07T03:24:52.564Z,60.82
2022-09-07T03:27:41.757Z,61.01
2022-09-07T03:30:24.596Z,61.60
2022-09-07T03:33:13.761Z,60.01
2022-09-07T03:36:09.507Z,59.22
2022-09-07T03:38:52.216Z,59.15
2022-09-07T03:41:41.051Z,58.51
2022-09-07T03:44:24.188Z,58.45
2022-09-07T03:47:19.749Z,58.84
2022-09-07T03:50:09.076Z,58.47
2022-09-07T03:52:51.748Z,57.50
2022-09-07T03:55:40.533Z,58.02
2022-09-07T03:58:24.110Z,57.34
2022-09-07T04:01:12.837Z,56.88
2022-09-07T04:04:02.828Z,56.45
2022-09-07T04:06:51.984Z,56.08
2022-09-07T04:09:34.322Z,55.61
2022-09-07T04:12:22.982Z,55.46
2022-09-07T04:15:05.292Z,56.77
2022-09-07T04:17:53.994Z,55.88
2022-09-07T04:20:37.060Z,56.45
2022-09-07T04:23:26.740Z,55.53
2022-09-07T04:26:16.002Z,54.91
2022-09-07T04:29:05.371Z,54.61
2022-09-07T04:31:47.730Z,53.77
2022-09-07T04:34:37.268Z,53.66
2022-09-07T04:37:19.901Z,54.50
2022-09-07T04:40:08.112Z,53.44
2022-09-07T04:42:50.741Z,53.88
2022-09-07T04:45:40.006Z,53.82
2022-09-07T04:48:35.995Z,53.96
2022-09-07T04:51:25.288Z,54.58
2022-09-07T04:54:09.754Z,55.19
2022-09-07T04:56:58.077Z,57.00
2022-09-07T04:59:40.981Z,54.17
2022-09-07T05:02:29.395Z,55.72
2022-09-07T05:05:11.770Z,52.97
2022-09-07T05:07:59.998Z,52.21
2022-09-07T05:10:41.752Z,52.32
2022-09-07T05:13:24.237Z,50.86
2022-09-07T05:16:14.950Z,51.10
2022-09-07T05:19:16.746Z,49.82
2022-09-07T05:22:06.035Z,51.13
2022-09-07T05:24:48.014Z,50.51
2022-09-07T05:27:36.753Z,50.00
2022-09-07T05:36:32.616Z,49.08
2022-09-07T05:39:21.999Z,50.16
2022-09-07T05:42:11.032Z,49.34
2022-09-07T05:45:00.204Z,47.98
2022-09-07T05:47:54.684Z,48.15
2022-09-07T05:50:37.225Z,46.74
2022-09-07T05:53:25.739Z,47.84
2022-09-07T05:56:09.274Z,48.00
2022-09-07T05:59:01.771Z,47.29
2022-09-07T06:01:44.000Z,47.28
2022-09-07T06:04:32.985Z,45.35
2022-09-07T06:07:21.946Z,45.22
2022-09-07T06:13:12.952Z,48.23
2022-09-07T06:16:02.005Z,48.12
2022-09-07T06:18:46.189Z,44.83
2022-09-07T06:21:37.996Z,45.00
2022-09-07T06:24:19.971Z,46.22
2022-09-07T06:27:08.644Z,46.69
2022-09-07T06:29:57.998Z,44.58
2022-09-07T06:32:43.689Z,45.91
2022-09-07T06:35:32.658Z,47.25
2022-09-07T06:38:15.297Z,46.34
2022-09-07T06:44:10.299Z,47.66
2022-09-07T06:49:54.836Z,48.60
2022-09-07T06:55:52.168Z,47.47
2022-09-07T06:58:42.501Z,47.94
2022-09-07T07:01:27.340Z,49.01
2022-09-07T07:04:15.992Z,47.99
2022-09-07T07:06:58.037Z,46.60
2022-09-07T07:09:46.921Z,47.44
2022-09-07T07:15:19.226Z,46.06
2022-09-07T07:18:30.933Z,48.13
2022-09-07T07:21:14.746Z,43.98
2022-09-07T07:23:57.432Z,48.68
2022-09-07T07:26:48.010Z,47.92
2022-09-07T07:29:29.966Z,46.50
2022-09-07T07:32:18.736Z,45.65
2022-09-07T07:35:01.168Z,46.12
2022-09-07T07:37:50.628Z,46.82
2022-09-07T07:40:34.178Z,47.15
2022-09-07T07:43:25.013Z,47.99
2022-09-07T07:46:14.057Z,50.22
2022-09-07T07:49:09.996Z,48.31
2022-09-07T07:55:42.847Z,45.67
2022-09-07T07:58:11.574Z,52.98
2022-09-07T08:00:56.467Z,49.43
2022-09-07T08:03:47.706Z,45.93
2022-09-07T08:06:37.706Z,47.62
2022-09-07T08:09:19.918Z,45.52
2022-09-07T08:12:09.651Z,46.70
2022-09-07T08:14:58.865Z,45.81
2022-09-07T08:17:48.239Z,46.64
2022-09-07T08:20:30.161Z,44.90
2022-09-07T08:23:18.722Z,44.73
2022-09-07T08:26:08.282Z,44.91
2022-09-07T08:28:54.845Z,45.53
2022-09-07T08:31:43.922Z,45.35
2022-09-07T08:34:26.235Z,45.86
2022-09-07T08:37:15.694Z,45.90
2022-09-07T08:40:05.008Z,46.17
2022-09-07T08:43:33.223Z,44.38
2022-09-07T08:46:45.808Z,44.36
2022-09-07T08:50:00.565Z,45.97
2022-09-07T08:53:00.983Z,45.02
2022-09-07T08:55:54.225Z,45.11
2022-09-07T08:58:52.738Z,46.00
2022-09-07T09:01:42.301Z,45.14
2022-09-07T09:08:08.104Z,44.51
2022-09-07T09:11:07.913Z,44.78
2022-09-07T09:14:00.600Z,44.45
2022-09-07T09:16:58.870Z,43.34
2022-09-07T09:20:08.684Z,44.43
2022-09-07T09:22:54.013Z,44.98
2022-09-07T09:25:49.850Z,44.28
2022-09-07T09:28:36.633Z,44.88
2022-09-07T09:31:43.774Z,45.39
2022-09-07T09:34:36.027Z,46.73
2022-09-07T09:37:35.659Z,45.13
2022-09-07T09:40:40.642Z,46.04
2022-09-07T09:43:35.212Z,46.29
2022-09-07T09:46:34.624Z,46.25
2022-09-07T09:49:34.033Z,47.68
2022-09-07T09:52:45.081Z,48.24
2022-09-07T09:55:44.699Z,46.96
2022-09-07T10:04:58.652Z,49.19
2022-09-07T10:08:01.963Z,47.76
2022-09-07T10:11:10.457Z,47.60
2022-09-07T10:14:05.604Z,47.37
2022-09-07T10:16:55.747Z,46.90
2022-09-07T10:19:45.724Z,48.60
2022-09-07T10:22:39.338Z,49.71
2022-09-07T10:25:54.778Z,50.83
2022-09-07T10:32:34.876Z,52.10
2022-09-07T10:36:04.735Z,51.91
2022-09-07T10:39:05.697Z,53.10
2022-09-07T10:42:11.722Z,53.03
2022-09-07T10:45:15.029Z,53.06
2022-09-07T10:48:29.000Z,52.42
2022-09-07T10:51:44.162Z,52.74
2022-09-07T10:54:44.569Z,53.13
2022-09-07T10:58:03.051Z,53.13
2022-09-07T11:01:24.093Z,52.66
2022-09-07T11:04:59.042Z,52.31
2022-09-07T11:08:08.707Z,52.12
2022-09-07T11:11:16.047Z,51.78
2022-09-07T11:14:19.661Z,52.47
2022-09-07T11:17:21.041Z,52.42
2022-09-07T11:20:27.051Z,51.61
2022-09-07T11:23:23.255Z,51.98
2022-09-07T11:26:45.599Z,52.33
2022-09-07T11:30:11.890Z,53.35
2022-09-07T11:33:08.357Z,53.36
2022-09-07T11:36:20.544Z,53.36
2022-09-07T11:39:29.585Z,53.56
2022-09-07T11:42:50.943Z,52.42
2022-09-07T11:45:50.776Z,53.75
2022-09-07T11:48:58.858Z,53.17
2022-09-07T11:51:40.989Z,50.36
2022-09-07T11:55:00.605Z,53.46
2022-09-07T11:58:42.893Z,55.19
2022-09-07T12:01:41.432Z,55.14
2022-09-07T12:04:56.055Z,55.15
2022-09-07T12:07:59.698Z,53.10
2022-09-07T12:10:53.642Z,54.83
2022-09-07T12:13:59.903Z,55.57
2022-09-07T12:17:09.033Z,54.89
2022-09-07T12:20:22.629Z,54.45
2022-09-07T12:23:34.702Z,55.88
2022-09-07T12:26:45.175Z,55.48
2022-09-07T12:29:32.054Z,55.64
2022-09-07T12:32:54.228Z,56.73
2022-09-07T12:35:49.056Z,55.57
2022-09-07T12:38:45.616Z,54.89
2022-09-07T12:41:39.700Z,55.06
2022-09-07T12:44:31.330Z,54.66
2022-09-07T12:47:33.713Z,55.16
2022-09-07T12:50:51.327Z,55.47
2022-09-07T12:53:52.093Z,56.01
2022-09-07T13:00:36.607Z,55.46
2022-09-07T13:03:52.983Z,56.36
2022-09-07T13:07:12.700Z,56.51
2022-09-07T13:09:59.553Z,56.47
2022-09-07T13:12:59.953Z,57.28
2022-09-07T13:16:23.897Z,56.77
2022-09-07T13:19:18.070Z,56.62
2022-09-07T13:22:00.151Z,56.33
2022-09-07T13:25:12.595Z,56.23
2022-09-07T13:28:08.688Z,55.78
2022-09-07T13:31:25.058Z,56.72
2022-09-07T13:34:47.599Z,57.62
2022-09-07T13:37:35.592Z,58.15
2022-09-07T13:40:35.045Z,56.68
2022-09-07T13:43:35.848Z,59.70
2022-09-07T13:46:54.502Z,60.56
2022-09-07T13:50:18.610Z,59.08
2022-09-07T13:53:52.873Z,61.35
2022-09-07T13:57:08.650Z,60.11
2022-09-07T14:00:21.012Z,61.06
2022-09-07T14:03:23.071Z,61.38
2022-09-07T14:06:36.967Z,61.47
2022-09-07T14:09:37.937Z,62.11
2022-09-07T14:12:33.749Z,62.06
2022-09-07T14:15:56.578Z,62.51
2022-09-07T14:19:00.358Z,61.00
2022-09-07T14:21:43.850Z,61.86
2022-09-07T14:24:46.031Z,62.28
2022-09-07T14:27:41.218Z,60.87
2022-09-07T14:30:36.043Z,62.67
2022-09-07T14:33:24.210Z,61.81
2022-09-07T14:36:41.668Z,62.29
2022-09-07T14:39:30.532Z,62.90
2022-09-07T14:42:32.112Z,62.23
2022-09-07T14:45:42.059Z,62.88
2022-09-07T14:48:34.405Z,62.05
2022-09-07T14:51:38.878Z,61.67
2022-09-07T14:54:36.724Z,62.56
2022-09-07T14:57:27.684Z,63.17
2022-09-07T15:04:32.861Z,63.72
2022-09-07T15:07:38.600Z,64.71
2022-09-07T15:11:32.877Z,64.72
2022-09-07T15:14:24.208Z,63.94
2022-09-07T15:17:42.930Z,64.41
2022-09-07T15:20:53.022Z,64.11
2022-09-07T15:23:41.684Z,64.05
2022-09-07T15:29:42.930Z,63.12
2022-09-07T15:32:32.025Z,62.98
2022-09-07T15:35:22.692Z,62.42
2022-09-07T15:41:24.180Z,63.67
2022-09-07T15:44:21.539Z,63.48
2022-09-07T15:50:28.716Z,63.59
2022-09-07T15:56:28.976Z,63.49
2022-09-07T15:59:22.046Z,64.85
2022-09-07T16:05:32.712Z,64.25
2022-09-07T16:08:25.680Z,63.61
2022-09-07T16:11:23.944Z,64.80
2022-09-07T16:14:18.632Z,64.50
2022-09-07T16:20:08.630Z,64.42
2022-09-07T16:23:15.210Z,65.21
2022-09-07T16:26:11.095Z,65.53
2022-09-07T16:29:01.623Z,66.38
2022-09-07T16:34:56.682Z,65.29
2022-09-07T16:41:01.728Z,64.89
2022-09-07T16:43:52.668Z,64.86
2022-09-07T16:46:45.680Z,66.50
2022-09-07T16:49:33.448Z,66.94
2022-09-07T16:52:21.703Z,66.76
2022-09-07T16:55:14.751Z,66.49
2022-09-07T17:01:24.794Z,66.32
2022-09-07T17:04:11.472Z,65.65
2022-09-07T17:07:07.751Z,65.78
2022-09-07T17:09:54.099Z,65.80
2022-09-07T17:12:45.686Z,65.91
2022-09-07T17:15:35.812Z,66.25
2022-09-07T17:18:18.959Z,66.82
2022-09-07T17:21:12.282Z,66.24
2022-09-07T17:23:56.945Z,66.14
2022-09-07T17:26:50.105Z,66.10
2022-09-07T17:29:45.003Z,67.03
2022-09-07T17:32:27.961Z,67.48
2022-09-07T17:35:10.980Z,67.43
2022-09-07T17:38:01.406Z,67.33
2022-09-07T17:40:54.871Z,67.77
2022-09-07T17:43:53.589Z,67.25
2022-09-07T17:46:47.072Z,67.53
2022-09-07T17:49:30.476Z,68.61
2022-09-07T17:52:19.045Z,68.56
2022-09-07T17:55:03.078Z,68.20
2022-09-07T17:57:52.647Z,67.84
2022-09-07T18:00:36.886Z,67.88
2022-09-07T18:03:35.678Z,68.54
2022-09-07T18:06:26.868Z,63.99
2022-09-07T18:09:12.610Z,66.25
2022-09-07T18:12:01.843Z,66.64
2022-09-07T18:14:52.609Z,67.22
2022-09-07T18:17:42.417Z,67.00
2022-09-07T18:20:24.671Z,67.74
2022-09-07T18:23:08.851Z,67.92
2022-09-07T18:25:59.698Z,67.87
2022-09-07T18:29:10.454Z,68.31
2022-09-07T18:32:01.136Z,68.16
2022-09-07T18:34:50.804Z,68.37
2022-09-07T18:37:33.069Z,68.68
2022-09-07T18:40:23.926Z,68.32
2022-09-07T18:43:13.722Z,68.66
2022-09-07T18:46:09.480Z,68.60
2022-09-07T18:48:54.045Z,68.76
2022-09-07T18:54:39.995Z,68.96
2022-09-07T18:57:23.272Z,68.98
2022-09-07T19:00:16.165Z,69.16
2022-09-07T19:02:59.727Z,69.26
2022-09-07T19:05:50.354Z,69.63
2022-09-07T19:08:37.957Z,69.67
2022-09-07T19:11:32.954Z,69.23
2022-09-07T19:14:23.703Z,69.75
2022-09-07T19:17:06.092Z,69.47
2022-09-07T19:19:55.985Z,69.45
2022-09-07T19:22:38.432Z,69.68
2022-09-07T19:25:26.768Z,69.45
2022-09-07T19:28:15.495Z,69.51
2022-09-07T19:30:58.009Z,69.46
2022-09-07T19:33:40.255Z,69.57
2022-09-07T19:36:28.609Z,69.41
2022-09-07T19:39:12.263Z,69.27
2022-09-07T19:42:01.043Z,69.64
2022-09-07T19:44:50.324Z,69.81
2022-09-07T19:47:32.964Z,69.89
2022-09-07T19:50:22.005Z,69.79
2022-09-07T19:53:04.459Z,69.87
2022-09-07T19:55:52.812Z,70.39
2022-09-07T19:58:34.967Z,70.49
2022-09-07T20:01:27.952Z,70.40
2022-09-07T20:04:20.685Z,70.15
2022-09-07T20:07:15.865Z,70.52
2022-09-07T20:10:04.701Z,70.33
2022-09-07T20:12:47.336Z,70.80
2022-09-07T20:15:36.596Z,70.99
2022-09-07T20:18:24.618Z,71.18
2022-09-07T20:21:15.706Z,71.27
2022-09-07T20:23:59.057Z,71.32
2022-09-07T20:26:47.657Z,71.52
2022-09-07T20:29:32.713Z,71.74
2022-09-07T20:32:21.676Z,71.26
2022-09-07T20:35:04.317Z,71.34
2022-09-07T20:37:52.663Z,71.36
2022-09-07T20:40:34.978Z,71.28
2022-09-07T20:43:23.661Z,71.22
2022-09-07T20:46:10.486Z,71.39
2022-09-07T20:48:58.892Z,71.42
2022-09-07T20:51:41.054Z,71.54
2022-09-07T20:54:31.336Z,72.20
2022-09-07T20:57:14.031Z,72.34
2022-09-07T21:00:02.565Z,72.38
2022-09-07T21:02:44.002Z,71.91
2022-09-07T21:05:32.954Z,72.43
2022-09-07T21:08:28.597Z,72.68
2022-09-07T21:11:29.979Z,72.70
2022-09-07T21:14:15.352Z,72.69
2022-09-07T21:17:03.870Z,72.52
2022-09-07T21:19:47.240Z,72.59
2022-09-07T21:22:39.824Z,72.44
2022-09-07T21:25:21.969Z,72.61
2022-09-07T21:28:10.720Z,72.69
2022-09-07T21:31:00.245Z,72.38
2022-09-07T21:33:48.676Z,72.77
2022-09-07T21:36:35.272Z,72.92
2022-09-07T21:39:26.224Z,72.59
2022-09-07T21:42:14.853Z,72.60
2022-09-07T21:45:03.690Z,72.65
2022-09-07T21:47:47.303Z,72.40
2022-09-07T21:50:35.674Z,72.63
2022-09-07T21:53:20.093Z,72.27
2022-09-07T21:56:13.721Z,72.80
2022-09-07T21:58:56.338Z,72.91
2022-09-07T22:05:46.994Z,72.83
2022-09-07T22:08:35.674Z,73.26
2022-09-07T22:11:27.823Z,73.24
2022-09-07T22:14:18.930Z,73.38
2022-09-07T22:17:01.316Z,73.13
2022-09-07T22:19:50.290Z,73.75
2022-09-07T22:26:54.625Z,72.79
2022-09-07T22:29:37.028Z,73.26
2022-09-07T22:32:25.701Z,73.38
2022-09-07T22:35:07.933Z,73.38
2022-09-07T22:37:56.609Z,73.61
2022-09-07T22:40:39.185Z,73.60
2022-09-07T22:43:27.877Z,73.62
2022-09-07T22:46:10.054Z,73.76
2022-09-07T22:48:58.658Z,73.37
2022-09-07T22:51:48.679Z,73.69
2022-09-07T22:54:30.915Z,73.42
2022-09-07T22:57:19.910Z,73.73
2022-09-07T23:00:02.126Z,73.56
2022-09-07T23:02:50.670Z,73.76
2022-09-07T23:05:38.263Z,74.17
2022-09-07T23:08:33.910Z,73.98
2022-09-07T23:11:28.936Z,74.13
2022-09-07T23:14:22.952Z,74.01
2022-09-07T23:17:11.681Z,73.87
2022-09-07T23:20:00.714Z,73.79
2022-09-07T23:22:43.409Z,74.21
2022-09-07T23:25:31.696Z,74.38
2022-09-07T23:28:14.929Z,74.44
2022-09-07T23:31:03.849Z,74.33
2022-09-07T23:33:52.903Z,74.64
2022-09-07T23:36:35.368Z,74.24
2022-09-07T23:39:23.832Z,74.69
2022-09-07T23:42:12.911Z,74.67
2022-09-07T23:44:54.952Z,74.24
2022-09-07T23:47:43.661Z,74.87
2022-09-07T23:50:25.976Z,74.83
2022-09-07T23:53:14.916Z,74.95
2022-09-07T23:55:59.246Z,74.70
2022-09-07T23:58:47.961Z,74.42
